Main page
METAR-TAF:

METAR-TAF

Airports :

Ernesto Cortissoz International Airport

Barranquilla, Colombia

latitude: 10-53N, longitude: 074-47W, elevation: 14 m

Current weather observation

The report was made 31 minutes ago, at 16:00 UTC
Wind 15 kt from the South
Temperature 29°C
Humidity 79%
Pressure 1010 hPa
Visibility 10 km or more
Scattered clouds at a height of 1200 ft

METAR: SKBQ 211600Z 18015KT 9999 SCT012 29/25 Q1010 NOSIG

Time: 11:31 (16:31 UTC)

Forecast

The report was made 6 hours and 1 minutes ago, at 10:30 UTC
Forecast valid from 21 at 12 UTC to 22 at 12 UTC
Wind 5 kt from the South/Southeast
Visibility 10 km or more
Scattered clouds at a height of 1500 ft
Temporary
from 21 at 18 UTC to 21 at 22 UTC
Scattered clouds at a height of 1500 ft, Cumulonimbus.
thunderstorm, rain
Becoming
from 22 at 09 UTC to 22 at 11 UTC
Visibility: 4000 m
Broken clouds at a height of 1000 ft
mist,

TAF: SKBQ 211030Z 2112/2212 15005KT 9999 SCT015 TEMPO 2118/2122 TSRA SCT015CB BECMG 2209/2211 4000 BR BKN010 TX33/2118Z TN27/2210Z

Weather observations and forecasts of more than 4000 airports (METAR and TAF reports).

The available stations are represented by yellow and red dots on the map.

Hover mouse over dot to see the name of the station.

Then click to see weather observations and forecasts.

To change the map : click on the green buttons with a black cross to zoom in, on the green button with a dash to zoom out, or on the green arrows for adjacent maps.


METAR-TAF: